createdAt,value
2022-12-20T00:00:02.835Z,11.30
2022-12-20T00:02:39.282Z,11.20
2022-12-20T00:05:08.750Z,11.30
2022-12-20T00:07:43.073Z,11.30
2022-12-20T00:10:12.112Z,11.30
2022-12-20T00:12:47.212Z,11.40
2022-12-20T00:15:15.551Z,11.40
2022-12-20T00:17:52.365Z,11.40
2022-12-20T00:20:21.262Z,11.40
2022-12-20T00:22:56.088Z,11.40
2022-12-20T00:25:25.385Z,11.40
2022-12-20T00:28:00.189Z,11.40
2022-12-20T00:30:29.720Z,11.40
2022-12-20T00:33:06.069Z,11.40
2022-12-20T00:35:34.491Z,11.30
2022-12-20T00:38:09.258Z,11.30
2022-12-20T00:40:37.789Z,11.30
2022-12-20T00:43:13.081Z,11.30
2022-12-20T00:45:41.307Z,11.20
2022-12-20T00:48:18.129Z,11.20
2022-12-20T00:50:46.948Z,11.20
2022-12-20T00:53:28.291Z,11.20
2022-12-20T00:55:57.456Z,11.20
2022-12-20T00:58:32.287Z,11.10
2022-12-20T01:01:01.013Z,11.10
2022-12-20T01:03:38.543Z,11.00
2022-12-20T01:06:07.285Z,11.00
2022-12-20T01:08:42.110Z,11.00
2022-12-20T01:11:13.771Z,11.00
2022-12-20T01:13:50.288Z,11.00
2022-12-20T01:16:22.177Z,11.00
2022-12-20T01:18:59.205Z,11.00
2022-12-20T01:21:29.385Z,11.00
2022-12-20T01:24:05.111Z,11.00
2022-12-20T01:26:33.664Z,11.00
2022-12-20T01:29:09.139Z,11.00
2022-12-20T01:31:38.227Z,11.00
2022-12-20T01:34:15.378Z,11.00
2022-12-20T01:36:44.171Z,11.10
2022-12-20T01:39:22.335Z,11.10
2022-12-20T01:41:50.707Z,11.10
2022-12-20T01:44:59.200Z,11.00
2022-12-20T01:47:29.210Z,11.10
2022-12-20T01:50:08.146Z,11.00
2022-12-20T01:52:47.531Z,11.00
2022-12-20T01:55:26.245Z,11.00
2022-12-20T01:57:59.938Z,11.00
2022-12-20T02:00:35.322Z,11.00
2022-12-20T02:03:13.667Z,11.00
2022-12-20T02:05:52.242Z,11.00
2022-12-20T02:08:29.200Z,11.00
2022-12-20T02:11:10.630Z,11.00
2022-12-20T02:13:53.211Z,11.00
2022-12-20T02:16:25.648Z,11.00
2022-12-20T02:19:08.189Z,11.00
2022-12-20T02:21:41.760Z,11.00
2022-12-20T02:24:44.249Z,11.00
2022-12-20T02:27:36.244Z,11.00
2022-12-20T02:30:28.177Z,11.00
2022-12-20T02:33:01.491Z,11.00
2022-12-20T02:35:38.157Z,11.00
2022-12-20T02:38:22.067Z,11.00
2022-12-20T02:40:59.120Z,11.00
2022-12-20T02:43:48.003Z,11.00
2022-12-20T02:46:27.253Z,11.10
2022-12-20T02:48:59.663Z,11.00
2022-12-20T02:51:37.384Z,11.00
2022-12-20T02:54:06.556Z,11.00
2022-12-20T02:56:46.259Z,11.00
2022-12-20T02:59:19.787Z,11.00
2022-12-20T03:01:59.625Z,11.00
2022-12-20T03:04:36.626Z,11.00
2022-12-20T03:07:14.431Z,10.90
2022-12-20T03:09:45.434Z,10.90
2022-12-20T03:12:22.390Z,10.90
2022-12-20T03:14:51.140Z,10.90
2022-12-20T03:17:27.568Z,10.90
2022-12-20T03:19:56.005Z,10.90
2022-12-20T03:22:31.274Z,10.90
2022-12-20T03:24:59.612Z,10.90
2022-12-20T03:27:35.224Z,10.90
2022-12-20T03:30:03.653Z,10.90
2022-12-20T03:32:40.410Z,10.90
2022-12-20T03:35:09.693Z,11.00
2022-12-20T03:37:44.223Z,11.00
2022-12-20T03:40:13.859Z,11.00
2022-12-20T03:42:48.357Z,11.00
2022-12-20T03:45:17.081Z,11.00
2022-12-20T03:47:53.253Z,11.00
2022-12-20T03:50:21.760Z,11.00
2022-12-20T03:52:56.424Z,11.00
2022-12-20T03:55:24.784Z,11.00
2022-12-20T03:57:59.419Z,11.00
2022-12-20T04:00:27.829Z,11.00
2022-12-20T04:03:10.693Z,11.00
2022-12-20T04:05:45.636Z,11.10
2022-12-20T04:08:20.535Z,11.10
2022-12-20T04:11:06.217Z,11.10
2022-12-20T04:13:41.285Z,11.10
2022-12-20T04:16:10.103Z,11.00
2022-12-20T04:18:46.480Z,11.00
2022-12-20T04:21:15.172Z,11.00
2022-12-20T04:23:51.326Z,11.00
2022-12-20T04:26:20.411Z,10.90
2022-12-20T04:28:55.342Z,10.90
2022-12-20T04:31:24.587Z,10.90
2022-12-20T04:34:01.355Z,10.90
2022-12-20T04:36:29.631Z,10.90
2022-12-20T04:39:04.481Z,10.90
2022-12-20T04:41:32.851Z,10.90
2022-12-20T04:44:07.219Z,10.90
2022-12-20T04:46:35.497Z,10.90
2022-12-20T04:49:12.421Z,10.90
2022-12-20T04:51:40.783Z,10.80
2022-12-20T04:54:14.375Z,10.90
2022-12-20T04:56:42.770Z,10.90
2022-12-20T04:59:18.619Z,10.80
2022-12-20T05:01:47.008Z,10.80
2022-12-20T05:04:37.049Z,10.80
2022-12-20T05:07:06.159Z,10.80
2022-12-20T05:09:41.326Z,10.80
2022-12-20T05:12:16.490Z,10.80
2022-12-20T05:14:44.825Z,10.80
2022-12-20T05:17:19.333Z,10.80
2022-12-20T05:19:49.207Z,10.80
2022-12-20T05:22:41.378Z,10.80
2022-12-20T05:25:35.370Z,10.80
2022-12-20T05:28:03.823Z,10.80
2022-12-20T05:30:32.360Z,10.80
2022-12-20T05:33:07.363Z,10.80
2022-12-20T05:35:37.023Z,10.80
2022-12-20T05:38:12.409Z,10.80
2022-12-20T05:40:41.453Z,10.80
2022-12-20T05:43:16.328Z,10.70
2022-12-20T05:45:47.556Z,10.70
2022-12-20T05:48:22.312Z,10.70
2022-12-20T05:50:51.992Z,10.70
2022-12-20T05:53:40.435Z,10.60
2022-12-20T05:56:21.558Z,10.60
2022-12-20T05:58:49.964Z,10.60
2022-12-20T06:01:25.330Z,10.60
2022-12-20T06:04:06.648Z,10.60
2022-12-20T06:06:42.929Z,10.60
2022-12-20T06:09:18.343Z,10.60
2022-12-20T06:11:47.845Z,10.60
2022-12-20T06:14:22.472Z,10.60
2022-12-20T06:16:50.896Z,10.60
2022-12-20T06:19:25.593Z,10.60
2022-12-20T06:21:55.263Z,10.60
2022-12-20T06:24:32.400Z,10.50
2022-12-20T06:27:00.943Z,10.50
2022-12-20T06:29:36.363Z,10.60
2022-12-20T06:32:06.434Z,10.50
2022-12-20T06:34:41.389Z,10.50
2022-12-20T06:37:11.340Z,10.50
2022-12-20T06:39:46.398Z,10.50
2022-12-20T06:42:14.650Z,10.50
2022-12-20T06:44:49.648Z,10.50
2022-12-20T06:47:18.583Z,10.50
2022-12-20T06:49:54.440Z,10.40
2022-12-20T06:52:24.795Z,10.50
2022-12-20T06:55:01.686Z,10.50
2022-12-20T06:57:30.076Z,10.50
2022-12-20T07:00:04.457Z,10.50
2022-12-20T07:02:33.192Z,10.60
2022-12-20T07:05:14.485Z,10.60
2022-12-20T07:07:45.283Z,10.60
2022-12-20T07:10:21.492Z,10.60
2022-12-20T07:12:49.883Z,10.70
2022-12-20T07:15:25.596Z,10.70
2022-12-20T07:17:54.707Z,10.70
2022-12-20T07:20:29.524Z,10.70
2022-12-20T07:22:59.556Z,10.80
2022-12-20T07:25:34.590Z,10.80
2022-12-20T07:28:03.508Z,10.80
2022-12-20T07:30:38.452Z,10.80
2022-12-20T07:33:06.642Z,10.80
2022-12-20T07:35:41.501Z,10.80
2022-12-20T07:38:11.243Z,10.80
2022-12-20T07:40:48.693Z,10.70
2022-12-20T07:43:17.344Z,10.70
2022-12-20T07:45:52.702Z,10.70
2022-12-20T07:48:21.962Z,10.70
2022-12-20T07:50:57.485Z,10.70
2022-12-20T07:53:28.978Z,10.70
2022-12-20T07:56:05.527Z,10.60
2022-12-20T07:58:37.691Z,10.60
2022-12-20T08:01:13.722Z,10.60
2022-12-20T08:04:05.753Z,10.60
2022-12-20T08:06:36.109Z,10.60
2022-12-20T08:09:13.579Z,10.50
2022-12-20T08:11:44.805Z,10.50
2022-12-20T08:14:20.826Z,10.40
2022-12-20T08:16:49.526Z,10.40
2022-12-20T08:19:31.781Z,10.40
2022-12-20T08:22:02.003Z,10.40
2022-12-20T08:24:38.541Z,10.30
2022-12-20T08:27:06.998Z,10.30
2022-12-20T08:29:41.700Z,10.30
2022-12-20T08:32:10.268Z,10.30
2022-12-20T08:34:45.574Z,10.30
2022-12-20T08:37:15.251Z,10.30
2022-12-20T08:39:51.664Z,10.30
2022-12-20T08:42:20.046Z,10.30
2022-12-20T08:44:54.560Z,10.30
2022-12-20T08:47:23.066Z,10.30
2022-12-20T08:49:57.493Z,10.40
2022-12-20T08:52:25.769Z,10.40
2022-12-20T08:55:05.218Z,10.40
2022-12-20T08:57:34.749Z,10.40
2022-12-20T09:00:09.592Z,10.40
2022-12-20T09:02:38.719Z,10.50
2022-12-20T09:05:19.615Z,10.50
2022-12-20T09:07:48.447Z,10.50
2022-12-20T09:10:24.530Z,10.50
2022-12-20T09:12:53.110Z,10.60
2022-12-20T09:15:28.617Z,10.60
2022-12-20T09:17:57.161Z,10.60
2022-12-20T09:20:32.594Z,10.70
2022-12-20T09:23:01.521Z,10.70
2022-12-20T09:25:37.640Z,10.80
2022-12-20T09:28:06.345Z,10.80
2022-12-20T09:30:41.605Z,10.90
2022-12-20T09:33:10.518Z,11.00
2022-12-20T09:35:51.682Z,11.10
2022-12-20T09:38:19.931Z,11.10
2022-12-20T09:40:59.612Z,11.20
2022-12-20T09:43:29.062Z,11.20
2022-12-20T09:46:07.648Z,11.20
2022-12-20T09:48:39.906Z,11.20
2022-12-20T09:51:25.792Z,11.10
2022-12-20T09:54:05.615Z,11.10
2022-12-20T09:56:45.535Z,11.00
2022-12-20T09:59:19.168Z,11.00
2022-12-20T10:01:58.242Z,11.00
2022-12-20T10:04:39.029Z,11.00
2022-12-20T10:07:33.617Z,11.00
2022-12-20T10:10:30.161Z,11.10
2022-12-20T10:13:14.668Z,11.10
2022-12-20T10:15:51.372Z,11.00
2022-12-20T10:18:36.572Z,11.00
2022-12-20T10:21:10.576Z,11.00
2022-12-20T10:23:51.727Z,11.10
2022-12-20T10:26:20.133Z,11.10
2022-12-20T10:28:58.761Z,11.10
2022-12-20T10:31:28.206Z,11.00
2022-12-20T10:34:04.847Z,11.10
2022-12-20T10:36:34.797Z,11.10
2022-12-20T10:39:12.603Z,11.10
2022-12-20T10:41:52.122Z,11.10
2022-12-20T10:44:33.623Z,11.10
2022-12-20T10:47:02.504Z,11.10
2022-12-20T10:49:39.811Z,11.10
2022-12-20T10:52:14.662Z,11.10
2022-12-20T10:54:50.575Z,11.10
2022-12-20T10:57:23.312Z,11.10
2022-12-20T11:00:01.796Z,11.10
2022-12-20T11:02:39.960Z,11.10
2022-12-20T11:05:37.694Z,11.10
2022-12-20T11:11:21.725Z,11.10
2022-12-20T11:13:51.398Z,11.10
2022-12-20T11:16:48.697Z,11.10
2022-12-20T11:19:40.722Z,11.10
2022-12-20T11:22:29.680Z,11.10
2022-12-20T11:25:12.372Z,11.10
2022-12-20T11:27:55.665Z,11.10
2022-12-20T11:30:27.307Z,11.10
2022-12-20T11:33:23.687Z,11.00
2022-12-20T11:35:57.175Z,11.00
2022-12-20T11:38:40.847Z,11.00
2022-12-20T11:41:20.048Z,11.00
2022-12-20T11:44:26.955Z,11.00
2022-12-20T11:47:18.727Z,11.00
2022-12-20T11:50:13.304Z,11.00
2022-12-20T11:52:55.703Z,10.90
2022-12-20T11:55:29.909Z,10.90
2022-12-20T11:58:18.755Z,10.90
2022-12-20T12:00:54.940Z,10.90
2022-12-20T12:03:35.695Z,10.90
2022-12-20T12:06:21.665Z,10.80
2022-12-20T12:09:00.715Z,10.80
2022-12-20T12:12:05.900Z,10.80
2022-12-20T12:14:43.006Z,10.70
2022-12-20T12:17:19.237Z,10.70
2022-12-20T12:19:57.710Z,10.70
2022-12-20T12:22:33.911Z,10.70
2022-12-20T12:25:11.825Z,10.70
2022-12-20T12:27:40.943Z,10.70
2022-12-20T12:30:21.844Z,10.60
2022-12-20T12:32:57.305Z,10.60
2022-12-20T12:35:53.770Z,10.60
2022-12-20T12:38:54.382Z,10.60
2022-12-20T12:42:05.882Z,10.60
2022-12-20T12:44:48.160Z,10.50
2022-12-20T12:47:28.797Z,10.50
2022-12-20T12:49:58.842Z,10.50
2022-12-20T12:52:49.720Z,10.40
2022-12-20T12:55:47.330Z,10.40
2022-12-20T12:58:41.512Z,10.40
2022-12-20T13:01:14.011Z,10.40
2022-12-20T13:04:29.817Z,10.30
2022-12-20T13:07:10.303Z,10.30
2022-12-20T13:09:50.733Z,10.30
2022-12-20T13:12:57.702Z,10.30
2022-12-20T13:15:55.912Z,10.30
2022-12-20T13:18:28.685Z,10.30
2022-12-20T13:21:38.807Z,10.20
2022-12-20T13:24:41.020Z,10.20
2022-12-20T13:27:42.764Z,10.20
2022-12-20T13:30:48.011Z,10.20
2022-12-20T13:33:24.618Z,10.20
2022-12-20T13:36:05.810Z,10.20
2022-12-20T13:38:52.990Z,10.20
2022-12-20T13:41:43.805Z,10.20
2022-12-20T13:44:37.745Z,10.20
2022-12-20T13:47:33.951Z,10.20
2022-12-20T13:50:22.588Z,10.20
2022-12-20T13:52:59.770Z,10.20
2022-12-20T13:55:34.355Z,10.10
2022-12-20T13:58:14.998Z,10.10
2022-12-20T14:00:44.015Z,10.10
2022-12-20T14:03:31.231Z,10.10
2022-12-20T14:06:12.544Z,10.10
2022-12-20T14:08:51.828Z,10.10
2022-12-20T14:11:22.768Z,10.10
2022-12-20T14:14:00.868Z,10.10
2022-12-20T14:16:31.138Z,10.10
2022-12-20T14:19:10.915Z,10.10
2022-12-20T14:21:43.946Z,10.10
2022-12-20T14:24:25.993Z,10.10
2022-12-20T14:26:55.867Z,10.10
2022-12-20T14:29:39.197Z,10.20
2022-12-20T14:32:07.874Z,10.20
2022-12-20T14:34:43.892Z,10.10
2022-12-20T14:37:53.757Z,10.10
2022-12-20T14:40:29.823Z,10.10
2022-12-20T14:42:58.730Z,10.20
2022-12-20T14:45:36.041Z,10.20
2022-12-20T14:48:09.442Z,10.10
2022-12-20T14:50:47.012Z,10.20
2022-12-20T14:53:21.508Z,10.20
2022-12-20T14:55:56.841Z,10.20
2022-12-20T14:58:27.671Z,10.20
2022-12-20T15:01:08.081Z,10.20
2022-12-20T15:03:43.866Z,10.20
2022-12-20T15:06:41.860Z,10.20
2022-12-20T15:09:11.792Z,10.20
2022-12-20T15:11:46.904Z,10.20
2022-12-20T15:14:25.138Z,10.20
2022-12-20T15:17:00.173Z,10.20
2022-12-20T15:19:29.227Z,10.20
2022-12-20T15:22:04.868Z,10.20
2022-12-20T15:24:34.831Z,10.10
2022-12-20T15:27:09.862Z,10.10
2022-12-20T15:29:38.147Z,10.10
2022-12-20T15:32:21.112Z,10.00
2022-12-20T15:34:49.638Z,10.00
2022-12-20T15:37:24.828Z,10.00
2022-12-20T15:39:55.647Z,10.00
2022-12-20T15:42:31.898Z,10.00
2022-12-20T15:45:00.879Z,10.00
2022-12-20T15:47:36.014Z,10.00
2022-12-20T15:50:04.682Z,10.00
2022-12-20T15:52:39.905Z,10.00
2022-12-20T15:55:11.997Z,10.00
2022-12-20T15:57:47.093Z,10.00
2022-12-20T16:00:16.376Z,10.00
2022-12-20T16:02:52.266Z,10.00
2022-12-20T16:05:27.436Z,10.00
2022-12-20T16:08:08.909Z,10.00
2022-12-20T16:10:38.878Z,10.00
2022-12-20T16:13:19.410Z,10.00
2022-12-20T16:15:50.293Z,10.00
2022-12-20T16:18:28.818Z,10.00
2022-12-20T16:21:01.395Z,10.00
2022-12-20T16:23:36.903Z,10.00
2022-12-20T16:26:07.250Z,10.00
2022-12-20T16:28:41.898Z,10.00
2022-12-20T16:31:19.245Z,10.00
2022-12-20T16:33:53.893Z,10.00
2022-12-20T16:36:23.135Z,10.00
2022-12-20T16:38:59.190Z,10.00
2022-12-20T16:41:30.873Z,10.00
2022-12-20T16:44:07.021Z,10.00
2022-12-20T16:46:35.232Z,10.00
2022-12-20T16:49:14.864Z,10.00
2022-12-20T16:51:50.983Z,10.00
2022-12-20T16:54:28.120Z,10.00
2022-12-20T16:56:58.565Z,10.00
2022-12-20T16:59:34.176Z,10.00
2022-12-20T17:02:02.960Z,10.00
2022-12-20T17:04:38.112Z,9.90
2022-12-20T17:07:13.541Z,9.90
2022-12-20T17:12:36.623Z,10.00
2022-12-20T17:15:12.015Z,10.00
2022-12-20T17:17:40.537Z,9.90
2022-12-20T17:20:16.005Z,9.90
2022-12-20T17:25:40.022Z,9.90
2022-12-20T17:28:09.957Z,9.90
2022-12-20T17:30:45.225Z,9.90
2022-12-20T17:33:16.495Z,9.90
2022-12-20T17:35:51.174Z,9.90
2022-12-20T17:38:19.359Z,9.90
2022-12-20T17:40:54.138Z,10.00
2022-12-20T17:43:24.195Z,10.00
2022-12-20T17:45:59.197Z,9.90
2022-12-20T17:48:33.267Z,9.90
2022-12-20T17:51:11.004Z,9.90
2022-12-20T17:53:39.379Z,9.90
2022-12-20T17:56:19.030Z,9.90
2022-12-20T17:58:49.105Z,9.90
2022-12-20T18:01:29.319Z,9.90
2022-12-20T18:04:21.158Z,9.90
2022-12-20T18:06:56.003Z,9.90
2022-12-20T18:09:24.364Z,9.90
2022-12-20T18:11:59.089Z,9.90
2022-12-20T18:14:28.843Z,9.90
2022-12-20T18:17:05.297Z,9.80
2022-12-20T18:19:33.671Z,9.90
2022-12-20T18:22:09.075Z,9.90
2022-12-20T18:24:37.371Z,9.90
2022-12-20T18:27:12.241Z,9.90
2022-12-20T18:29:42.124Z,9.90
2022-12-20T18:32:17.251Z,9.90
2022-12-20T18:34:45.702Z,9.90
2022-12-20T18:37:21.191Z,9.90
2022-12-20T18:39:49.572Z,9.90
2022-12-20T18:42:25.753Z,9.80
2022-12-20T18:44:55.736Z,9.90
2022-12-20T18:47:31.071Z,9.90
2022-12-20T18:49:59.643Z,9.80
2022-12-20T18:52:34.288Z,9.80
2022-12-20T18:55:03.058Z,9.80
2022-12-20T18:57:38.069Z,9.80
2022-12-20T19:00:09.717Z,9.80
2022-12-20T19:02:44.377Z,9.80
2022-12-20T19:05:32.095Z,9.80
2022-12-20T19:08:07.075Z,9.80
2022-12-20T19:10:35.540Z,9.80
2022-12-20T19:13:10.106Z,9.80
2022-12-20T19:15:40.185Z,9.80
2022-12-20T19:18:15.088Z,9.80
2022-12-20T19:20:43.737Z,9.70
2022-12-20T19:23:18.083Z,9.80
2022-12-20T19:25:46.636Z,9.80
2022-12-20T19:28:21.068Z,9.70
2022-12-20T19:30:50.932Z,9.70
2022-12-20T19:33:26.095Z,9.80
2022-12-20T19:35:55.991Z,9.80
2022-12-20T19:38:31.060Z,9.80
2022-12-20T19:40:59.462Z,9.80
2022-12-20T19:43:34.102Z,9.80
2022-12-20T19:46:03.929Z,9.80
2022-12-20T19:48:41.177Z,9.80
2022-12-20T19:51:12.732Z,9.80
2022-12-20T19:53:50.289Z,9.80
2022-12-20T19:56:20.486Z,9.80
2022-12-20T19:58:55.325Z,9.80
2022-12-20T20:01:27.886Z,9.80
2022-12-20T20:04:04.175Z,9.80
2022-12-20T20:06:39.186Z,9.80
2022-12-20T20:09:14.116Z,9.80
2022-12-20T20:11:42.993Z,9.80
2022-12-20T20:14:18.145Z,9.80
2022-12-20T20:16:55.128Z,9.90
2022-12-20T20:19:23.631Z,9.80
2022-12-20T20:21:58.218Z,9.90
2022-12-20T20:24:26.622Z,9.90
2022-12-20T20:27:01.372Z,9.80
2022-12-20T20:29:30.131Z,9.80
2022-12-20T20:32:07.201Z,9.80
2022-12-20T20:34:35.565Z,9.80
2022-12-20T20:37:10.299Z,9.80
2022-12-20T20:39:38.549Z,9.80
2022-12-20T20:42:15.893Z,9.80
2022-12-20T20:44:46.907Z,9.80
2022-12-20T20:47:23.198Z,9.80
2022-12-20T20:49:52.812Z,9.80
2022-12-20T20:52:28.191Z,9.80
2022-12-20T20:54:56.541Z,9.80
2022-12-20T20:57:32.352Z,9.80
2022-12-20T21:00:02.782Z,9.80
2022-12-20T21:02:39.415Z,9.80
2022-12-20T21:06:06.348Z,9.80
2022-12-20T21:08:09.169Z,9.80
2022-12-20T21:10:37.802Z,9.80
2022-12-20T21:13:13.241Z,9.70
2022-12-20T21:15:43.774Z,9.80
2022-12-20T21:18:20.194Z,9.70
2022-12-20T21:20:49.804Z,9.80
2022-12-20T21:23:25.267Z,9.80
2022-12-20T21:25:57.953Z,9.80
2022-12-20T21:28:34.171Z,9.70
2022-12-20T21:31:03.350Z,9.70
2022-12-20T21:33:40.416Z,9.70
2022-12-20T21:36:13.995Z,9.70
2022-12-20T21:38:49.269Z,9.60
2022-12-20T21:41:19.197Z,9.60
2022-12-20T21:43:54.242Z,9.60
2022-12-20T21:46:22.733Z,9.60
2022-12-20T21:48:59.412Z,9.50
2022-12-20T21:51:28.999Z,9.50
2022-12-20T21:54:06.385Z,9.50
2022-12-20T21:56:35.752Z,9.60
2022-12-20T21:59:12.413Z,9.50
2022-12-20T22:01:41.376Z,9.60
2022-12-20T22:04:20.500Z,9.60
2022-12-20T22:06:55.290Z,9.60
2022-12-20T22:09:30.446Z,9.60
2022-12-20T22:11:58.668Z,9.70
2022-12-20T22:14:34.374Z,9.70
2022-12-20T22:17:02.635Z,9.70
2022-12-20T22:19:39.280Z,9.70
2022-12-20T22:22:07.661Z,9.70
2022-12-20T22:24:44.274Z,9.70
2022-12-20T22:27:12.511Z,9.70
2022-12-20T22:29:47.488Z,9.70
2022-12-20T22:32:15.990Z,9.70
2022-12-20T22:34:52.240Z,9.70
2022-12-20T22:37:20.623Z,9.70
2022-12-20T22:39:55.217Z,9.70
2022-12-20T22:42:23.552Z,9.70
2022-12-20T22:44:58.239Z,9.70
2022-12-20T22:47:26.601Z,9.70
2022-12-20T22:50:03.227Z,9.70
2022-12-20T22:52:33.018Z,9.70
2022-12-20T22:55:08.456Z,9.60
2022-12-20T22:57:37.361Z,9.70
2022-12-20T23:00:13.394Z,9.60
2022-12-20T23:02:42.201Z,9.70
2022-12-20T23:05:19.423Z,9.70
2022-12-20T23:07:54.523Z,9.70
2022-12-20T23:10:43.283Z,9.70
2022-12-20T23:13:30.585Z,9.70
2022-12-20T23:16:05.380Z,9.70
2022-12-20T23:18:33.866Z,9.70
2022-12-20T23:21:27.359Z,9.70
2022-12-20T23:23:56.231Z,9.70
2022-12-20T23:26:32.301Z,9.70
2022-12-20T23:29:01.306Z,9.70
2022-12-20T23:31:36.373Z,9.70
2022-12-20T23:34:05.239Z,9.70
2022-12-20T23:36:41.393Z,9.70
2022-12-20T23:39:09.870Z,9.70
2022-12-20T23:41:45.360Z,9.70
2022-12-20T23:44:13.777Z,9.70
2022-12-20T23:46:48.326Z,9.70
2022-12-20T23:49:17.203Z,9.70
2022-12-20T23:51:53.359Z,9.70
2022-12-20T23:54:21.919Z,9.70
2022-12-20T23:56:57.329Z,9.70
2022-12-20T23:59:25.774Z,9.60
